createdAt,value
2019-02-17T00:04:51.809Z,101786.64
2019-02-17T00:09:58.406Z,101788.33
2019-02-17T00:15:06.022Z,101796.45
2019-02-17T00:20:12.546Z,101798.84
2019-02-17T00:25:20.421Z,101793.41
2019-02-17T00:30:26.770Z,101794.30
2019-02-17T00:35:32.866Z,101794.66
2019-02-17T00:40:38.799Z,101782.39
2019-02-17T00:45:45.244Z,101781.03
2019-02-17T00:50:50.824Z,101776.72
2019-02-17T00:55:56.841Z,101787.47
2019-02-17T01:01:03.157Z,101787.84
2019-02-17T01:06:09.254Z,101792.28
2019-02-17T01:11:15.417Z,101793.73
2019-02-17T01:16:21.213Z,101790.28
2019-02-17T01:21:26.871Z,101795.14
2019-02-17T01:26:33.998Z,101800.75
2019-02-17T01:31:39.713Z,101795.31
2019-02-17T01:36:46.714Z,101799.14
2019-02-17T01:41:52.994Z,101800.77
2019-02-17T01:46:59.464Z,101800.20
2019-02-17T01:52:05.519Z,101800.44
2019-02-17T01:57:11.165Z,101799.34
2019-02-17T02:02:17.709Z,101797.52
2019-02-17T02:07:23.805Z,101796.25
2019-02-17T02:12:29.685Z,101796.37
2019-02-17T02:17:37.756Z,101789.86
2019-02-17T02:22:46.019Z,101792.08
2019-02-17T02:27:51.802Z,101787.23
2019-02-17T02:32:59.819Z,101783.34
2019-02-17T02:38:06.106Z,101788.17
2019-02-17T02:43:11.647Z,101789.83
2019-02-17T02:48:17.696Z,101789.58
2019-02-17T02:53:23.751Z,101785.80
2019-02-17T02:58:29.704Z,101796.64
2019-02-17T03:03:35.497Z,101793.61
2019-02-17T03:08:41.487Z,101795.33
2019-02-17T03:13:47.295Z,101798.82
2019-02-17T03:18:53.235Z,101808.20
2019-02-17T03:23:58.916Z,101809.28
2019-02-17T03:29:04.711Z,101815.64
2019-02-17T03:34:10.655Z,101812.50
2019-02-17T03:39:16.317Z,101814.70
2019-02-17T03:44:23.049Z,101814.21
2019-02-17T03:49:28.629Z,101815.75
2019-02-17T03:54:34.309Z,101816.45
2019-02-17T03:59:40.413Z,101812.38
2019-02-17T04:04:46.010Z,101818.62
2019-02-17T04:09:52.070Z,101819.64
2019-02-17T04:14:57.989Z,101820.39
2019-02-17T04:20:03.681Z,101820.92
2019-02-17T04:25:09.363Z,101814.15
2019-02-17T04:30:28.164Z,101822.23
2019-02-17T04:35:24.193Z,101823.05
2019-02-17T04:40:29.830Z,101813.77
2019-02-17T04:45:35.771Z,101815.73
2019-02-17T04:50:42.169Z,101812.09
2019-02-17T04:55:47.816Z,101813.94
2019-02-17T05:00:55.124Z,101799.87
2019-02-17T05:06:02.319Z,101797.78
2019-02-17T05:11:08.315Z,101799.09
2019-02-17T05:16:14.386Z,101800.02
2019-02-17T05:21:20.709Z,101811.08
2019-02-17T05:26:26.698Z,101813.57
2019-02-17T05:31:34.007Z,101809.50
2019-02-17T05:36:39.740Z,101819.05
2019-02-17T05:41:45.538Z,101816.68
2019-02-17T05:46:51.433Z,101819.55
2019-02-17T05:51:56.987Z,101824.64
2019-02-17T05:57:04.620Z,101824.10
2019-02-17T06:02:12.856Z,101824.64
2019-02-17T06:07:21.072Z,101821.27
2019-02-17T06:12:27.200Z,101826.22
2019-02-17T06:17:33.144Z,101827.52
2019-02-17T06:22:39.184Z,101834.78
2019-02-17T06:27:45.914Z,101838.58
2019-02-17T06:32:52.382Z,101839.23
2019-02-17T06:37:58.457Z,101846.79
2019-02-17T06:43:04.255Z,101848.48
2019-02-17T06:48:10.043Z,101862.42
2019-02-17T06:53:17.799Z,101859.55
2019-02-17T06:58:23.470Z,101855.64
2019-02-17T07:03:30.774Z,101857.33
2019-02-17T07:08:36.416Z,101850.27
2019-02-17T07:13:42.943Z,101853.26
2019-02-17T07:18:48.670Z,101857.80
2019-02-17T07:23:55.245Z,101852.22
2019-02-17T07:29:01.452Z,101863.45
2019-02-17T07:34:07.535Z,101858.84
2019-02-17T07:39:14.065Z,101868.78
2019-02-17T07:44:19.811Z,101867.09
2019-02-17T07:49:26.194Z,101870.91
2019-02-17T07:54:33.287Z,101868.95
2019-02-17T07:59:40.496Z,101867.80
2019-02-17T08:04:47.836Z,101871.03
2019-02-17T08:09:55.545Z,101876.67
2019-02-17T08:15:01.291Z,101879.27
2019-02-17T08:20:10.475Z,101879.99
2019-02-17T08:25:21.822Z,101878.12
2019-02-17T08:30:25.738Z,101882.59
2019-02-17T08:35:32.964Z,101888.77
2019-02-17T08:40:41.466Z,101895.12
2019-02-17T08:45:47.264Z,101885.30
2019-02-17T08:50:54.692Z,101885.38
2019-02-17T08:56:00.631Z,101876.84
2019-02-17T09:01:07.738Z,101887.05
2019-02-17T09:06:15.535Z,101883.33
2019-02-17T09:11:21.135Z,101879.27
2019-02-17T09:16:28.130Z,101878.86
2019-02-17T09:21:34.154Z,101874.17
2019-02-17T09:26:39.735Z,101862.23
2019-02-17T09:31:47.019Z,101874.46
2019-02-17T09:36:52.620Z,101866.42
2019-02-17T09:41:59.300Z,101853.31
2019-02-17T09:47:05.081Z,101853.17
2019-02-17T09:52:11.583Z,101854.48
2019-02-17T09:57:17.555Z,101848.98
2019-02-17T10:02:26.818Z,101849.68
2019-02-17T10:07:33.436Z,101848.83
2019-02-17T10:12:39.857Z,101852.58
2019-02-17T10:17:47.041Z,101851.41
2019-02-17T10:22:52.994Z,101842.11
2019-02-17T10:27:59.880Z,101840.69
2019-02-17T10:33:06.252Z,101843.72
2019-02-17T10:38:11.823Z,101842.73
2019-02-17T10:43:17.630Z,101834.03
2019-02-17T10:48:24.090Z,101827.93
2019-02-17T10:53:30.310Z,101820.47
2019-02-17T10:58:36.013Z,101811.78
2019-02-17T11:03:45.536Z,101802.34
2019-02-17T11:08:52.727Z,101792.48
2019-02-17T11:14:00.388Z,101786.98
2019-02-17T11:19:08.709Z,101788.77
2019-02-17T11:24:16.155Z,101786.11
2019-02-17T11:29:21.985Z,101776.11
2019-02-17T11:34:28.217Z,101776.28
2019-02-17T11:39:34.623Z,101765.13
2019-02-17T11:44:40.672Z,101758.45
2019-02-17T11:49:47.236Z,101754.77
2019-02-17T11:54:55.989Z,101758.67
2019-02-17T12:00:03.677Z,101759.78
2019-02-17T12:05:12.293Z,101754.29
2019-02-17T12:10:19.414Z,101751.10
2019-02-17T12:15:25.053Z,101740.38
2019-02-17T12:20:39.458Z,101735.52
2019-02-17T12:26:03.569Z,101736.10
2019-02-17T12:31:10.897Z,101729.66
2019-02-17T12:36:18.447Z,101724.19
2019-02-17T12:41:24.489Z,101720.95
2019-02-17T12:46:31.170Z,101717.06
2019-02-17T12:51:39.066Z,101711.64
2019-02-17T12:56:49.051Z,101711.33
2019-02-17T13:01:56.953Z,101707.10
2019-02-17T13:07:03.138Z,101695.91
2019-02-17T13:12:11.136Z,101702.94
2019-02-17T13:17:17.345Z,101699.55
2019-02-17T13:22:24.780Z,101696.48
2019-02-17T13:27:36.707Z,101696.39
2019-02-17T13:32:46.693Z,101685.95
2019-02-17T13:37:58.553Z,101686.34
2019-02-17T13:43:07.553Z,101682.07
2019-02-17T13:48:18.797Z,101674.39
2019-02-17T13:53:26.859Z,101673.23
2019-02-17T13:58:34.949Z,101673.41
2019-02-17T14:03:48.831Z,101672.04
2019-02-17T14:08:56.807Z,101672.23
2019-02-17T14:14:05.945Z,101665.15
2019-02-17T14:19:14.635Z,101656.16
2019-02-17T14:24:22.682Z,101652.63
2019-02-17T14:29:29.792Z,101654.85
2019-02-17T14:34:36.636Z,101645.69
2019-02-17T14:39:51.710Z,101633.78
2019-02-17T14:45:00.714Z,101633.81
2019-02-17T14:50:10.930Z,101624.23
2019-02-17T14:55:17.841Z,101613.56
2019-02-17T15:00:24.993Z,101616.06
2019-02-17T15:05:34.953Z,101610.94
2019-02-17T15:10:48.213Z,101600.26
2019-02-17T15:15:57.633Z,101595.98
2019-02-17T15:21:09.261Z,101594.91
2019-02-17T15:26:16.711Z,101592.41
2019-02-17T15:31:24.870Z,101594.80
2019-02-17T15:36:35.239Z,101582.45
2019-02-17T15:41:43.968Z,101575.66
2019-02-17T15:46:50.880Z,101563.89
2019-02-17T15:51:58.000Z,101560.80
2019-02-17T15:57:03.918Z,101554.81
2019-02-17T16:02:11.517Z,101553.98
2019-02-17T16:07:19.034Z,101551.36
2019-02-17T16:12:26.180Z,101542.45
2019-02-17T16:17:32.204Z,101537.09
2019-02-17T16:22:39.968Z,101534.23
2019-02-17T16:27:49.102Z,101543.05
2019-02-17T16:32:56.206Z,101545.83
2019-02-17T16:38:05.228Z,101545.89
2019-02-17T16:43:13.445Z,101540.40
2019-02-17T16:48:20.775Z,101556.31
2019-02-17T16:53:27.431Z,101560.31
2019-02-17T16:58:35.316Z,101561.31
2019-02-17T17:03:42.475Z,101559.36
2019-02-17T17:08:49.044Z,101552.72
2019-02-17T17:13:56.170Z,101552.78
2019-02-17T17:19:02.208Z,101556.69
2019-02-17T17:24:10.191Z,101555.83
2019-02-17T17:29:16.206Z,101553.70
2019-02-17T17:34:22.994Z,101543.82
2019-02-17T17:39:28.670Z,101545.39
2019-02-17T17:44:36.011Z,101537.03
2019-02-17T17:49:42.367Z,101540.60
2019-02-17T17:54:48.702Z,101536.70
2019-02-17T17:59:54.659Z,101532.48
2019-02-17T18:05:08.812Z,101533.29
2019-02-17T18:10:14.976Z,101535.61
2019-02-17T18:15:21.637Z,101537.77
2019-02-17T18:20:28.087Z,101541.36
2019-02-17T18:25:35.701Z,101531.63
2019-02-17T18:30:44.215Z,101530.65
2019-02-17T18:35:52.362Z,101527.60
2019-02-17T18:40:59.219Z,101533.60
2019-02-17T18:46:05.622Z,101535.89
2019-02-17T18:51:12.447Z,101540.06
2019-02-17T18:56:18.025Z,101533.91
2019-02-17T19:01:24.531Z,101538.50
2019-02-17T19:06:30.108Z,101540.45
2019-02-17T19:11:35.773Z,101536.69
2019-02-17T19:16:41.861Z,101532.91
2019-02-17T19:21:48.246Z,101531.14
2019-02-17T19:26:54.425Z,101532.39
2019-02-17T19:32:02.303Z,101528.20
2019-02-17T19:37:09.169Z,101524.09
2019-02-17T19:42:17.496Z,101520.41
2019-02-17T19:47:24.427Z,101514.87
2019-02-17T19:52:30.538Z,101522.03
2019-02-17T19:57:36.826Z,101518.15
2019-02-17T20:02:59.439Z,101517.98
2019-02-17T20:08:05.774Z,101525.10
2019-02-17T20:13:12.430Z,101518.44
2019-02-17T20:18:18.883Z,101510.92
2019-02-17T20:23:24.664Z,101517.36
2019-02-17T20:28:42.497Z,101515.79
2019-02-17T20:33:39.938Z,101506.27
2019-02-17T20:38:45.980Z,101499.52
2019-02-17T20:43:52.473Z,101500.66
2019-02-17T20:48:59.351Z,101501.70
2019-02-17T20:54:05.469Z,101502.70
2019-02-17T20:59:12.588Z,101500.30
2019-02-17T21:04:18.624Z,101493.63
2019-02-17T21:09:24.759Z,101498.70
2019-02-17T21:14:31.002Z,101498.71
2019-02-17T21:19:36.911Z,101489.17
2019-02-17T21:24:42.756Z,101492.54
2019-02-17T21:29:48.686Z,101499.96
2019-02-17T21:34:54.342Z,101507.12
2019-02-17T21:40:00.508Z,101508.58
2019-02-17T21:45:12.125Z,101496.75
2019-02-17T21:50:18.097Z,101493.72
2019-02-17T21:55:25.908Z,101497.59
2019-02-17T22:00:31.687Z,101493.31
2019-02-17T22:05:37.678Z,101493.74
2019-02-17T22:10:43.253Z,101493.41
2019-02-17T22:15:49.151Z,101481.01
2019-02-17T22:20:55.100Z,101485.48
2019-02-17T22:26:00.960Z,101477.39
2019-02-17T22:31:06.557Z,101469.94
2019-02-17T22:36:13.201Z,101471.10
2019-02-17T22:41:19.377Z,101461.93
2019-02-17T22:46:25.115Z,101460.94
2019-02-17T22:51:31.404Z,101461.39
2019-02-17T22:56:36.992Z,101455.07
2019-02-17T23:01:43.314Z,101450.25
2019-02-17T23:06:54.173Z,101450.57
2019-02-17T23:11:57.303Z,101454.56
2019-02-17T23:17:02.914Z,101459.28
2019-02-17T23:22:09.198Z,101454.94
2019-02-17T23:27:15.595Z,101455.52
2019-02-17T23:32:21.247Z,101450.30
2019-02-17T23:37:27.376Z,101449.47
2019-02-17T23:42:33.565Z,101438.67
2019-02-17T23:47:39.492Z,101436.96
2019-02-17T23:52:45.540Z,101432.59
2019-02-17T23:57:51.632Z,101435.22
